createdAt,value
2018-11-26T19:26:32.684Z,4.15
2018-11-26T19:29:03.576Z,4.03
2018-11-26T19:31:33.767Z,3.78
2018-11-26T19:34:04.033Z,3.70
2018-11-26T19:36:35.483Z,3.61
2018-11-26T19:39:09.317Z,3.47
2018-11-26T19:41:39.543Z,3.10
2018-11-26T19:44:10.023Z,3.15
2018-11-26T19:46:41.049Z,3.05
2018-11-26T19:49:11.274Z,3.15
2018-11-26T19:51:41.590Z,3.30
2018-11-26T19:54:11.833Z,3.27
2018-11-26T19:56:42.074Z,3.31
2018-11-26T19:59:12.121Z,3.36
2018-11-26T20:01:42.265Z,3.31
2018-11-26T20:04:36.736Z,3.29
2018-11-26T20:07:07.411Z,3.37
2018-11-26T20:09:37.660Z,3.25
2018-11-26T20:12:07.738Z,3.04
2018-11-26T20:14:37.837Z,2.92
2018-11-26T20:17:08.991Z,2.98
2018-11-26T20:19:39.273Z,3.07
2018-11-26T20:22:09.440Z,3.05
2018-11-26T20:24:39.555Z,3.15
2018-11-26T20:27:09.826Z,3.06
2018-11-26T20:29:40.266Z,3.06
2018-11-26T20:32:10.571Z,3.11
2018-11-26T20:34:40.812Z,3.11
2018-11-26T20:37:11.158Z,3.09
2018-11-26T20:39:41.306Z,3.06
2018-11-26T20:42:11.312Z,3.04
2018-11-26T20:44:41.442Z,2.94
2018-11-26T20:47:11.609Z,2.98
2018-11-26T20:49:41.793Z,3.04
2018-11-26T20:52:11.806Z,3.05
2018-11-26T20:54:41.916Z,3.08
2018-11-26T20:57:11.935Z,2.89
2018-11-26T20:59:41.983Z,2.91
2018-11-26T21:02:12.160Z,2.92
2018-11-26T21:04:42.305Z,2.91
2018-11-26T21:07:12.338Z,3.01
2018-11-26T21:09:42.488Z,3.14
2018-11-26T21:12:12.778Z,3.11
2018-11-26T21:14:42.819Z,3.19
2018-11-26T21:17:12.826Z,3.20
2018-11-26T21:19:42.920Z,3.21
2018-11-26T21:22:13.067Z,3.23
2018-11-26T21:24:43.209Z,3.13
2018-11-26T21:27:13.364Z,3.18
2018-11-26T21:29:43.595Z,3.15
2018-11-26T21:32:13.693Z,3.16
2018-11-26T21:34:43.735Z,3.03
2018-11-26T21:37:13.799Z,3.03
2018-11-26T21:39:43.800Z,3.00
2018-11-26T21:42:13.779Z,2.86
2018-11-26T21:44:43.751Z,2.96
2018-11-26T21:47:13.792Z,2.99
2018-11-26T21:49:43.717Z,2.76
2018-11-26T21:52:13.865Z,2.63
2018-11-26T21:54:43.843Z,2.66
2018-11-26T21:57:13.847Z,2.74
2018-11-26T21:59:43.774Z,2.78
2018-11-26T22:02:13.690Z,2.78
2018-11-26T22:04:43.614Z,2.71
2018-11-26T22:07:13.619Z,2.70
2018-11-26T22:09:44.085Z,2.47
2018-11-26T22:12:14.130Z,2.44
2018-11-26T22:14:44.261Z,2.50
2018-11-26T22:17:14.216Z,2.67
2018-11-26T22:19:44.159Z,2.59
2018-11-26T22:22:14.395Z,2.70
2018-11-26T22:24:44.394Z,2.66
2018-11-26T22:27:14.432Z,2.67
2018-11-26T22:29:44.395Z,2.72
2018-11-26T22:32:14.362Z,2.79
2018-11-26T22:34:44.600Z,2.76
2018-11-26T22:37:14.538Z,2.70
2018-11-26T22:39:44.465Z,2.59
2018-11-26T22:42:14.383Z,2.63
2018-11-26T22:44:44.680Z,2.51
2018-11-26T22:47:14.592Z,2.41
2018-11-26T22:49:44.448Z,2.54
2018-11-26T22:52:14.540Z,2.57
2018-11-26T22:54:44.509Z,2.46
2018-11-26T22:57:16.597Z,2.42
2018-11-26T22:59:46.518Z,2.58
2018-11-26T23:02:16.632Z,2.61
2018-11-26T23:04:46.617Z,2.53
2018-11-26T23:07:16.541Z,2.51
2018-11-26T23:09:46.438Z,2.48
2018-11-26T23:12:17.359Z,2.47
2018-11-26T23:14:47.256Z,2.43
2018-11-26T23:17:17.246Z,2.43
2018-11-26T23:19:47.133Z,2.35
2018-11-26T23:22:17.099Z,2.38
2018-11-26T23:24:46.977Z,2.42
2018-11-26T23:27:16.939Z,2.47
2018-11-26T23:29:46.873Z,2.57
2018-11-26T23:32:16.736Z,2.64
2018-11-26T23:34:46.608Z,2.71
2018-11-26T23:37:16.512Z,2.59
2018-11-26T23:39:46.450Z,2.70
2018-11-26T23:42:16.377Z,2.65
2018-11-26T23:44:46.239Z,2.68
2018-11-26T23:47:16.560Z,2.70
2018-11-26T23:49:48.012Z,2.63
2018-11-26T23:52:17.895Z,2.69
2018-11-26T23:54:47.750Z,2.66
2018-11-26T23:57:17.703Z,2.62
2018-11-26T23:59:47.558Z,2.76
